Time;durP1;ratioP1;P1;durP2;ratioP2;P2;SDS_P1;SDS_P2;PMS_P1;PMS_P2;Temp;Humidity;BMP_temperature;BMP_pressure;BME280_temperature;BME280_humidity;BME280_pressure;Samples;Min_cycle;Max_cycle;Signal;HPM_P1;HPM_P2
2022/05/07 00:01:19;;;;;;;5.60;5.10;;;;;;;;;;5033842;28;20198;-85
2022/05/07 00:03:47;;;;;;;6.67;4.97;;;;;;;;;;5033791;28;20205;-85
2022/05/07 00:06:15;;;;;;;5.63;5.13;;;;;;;;;;5033886;28;20603;-85
2022/05/07 00:08:43;;;;;;;6.53;5.53;;;;;;;;;;5033750;28;20211;-85
2022/05/07 00:11:10;;;;;;;5.73;4.90;;;;;;;;;;5033837;28;20282;-84
2022/05/07 00:13:37;;;;;;;6.07;5.57;;;;;;;;;;5033885;28;20607;-85
2022/05/07 00:18:52;;;;;;;6.43;4.70;;;;;;;;;;5033998;28;20251;-87
2022/05/07 00:21:21;;;;;;;5.67;5.17;;;;;;;;;;5033783;28;20213;-87
2022/05/07 00:23:49;;;;;;;5.70;5.17;;;;;;;;;;5033411;28;20230;-86
2022/05/07 00:26:16;;;;;;;6.90;5.10;;;;;;;;;;5032985;28;20273;-87
2022/05/07 00:28:44;;;;;;;6.10;5.47;;;;;;;;;;5033355;28;20199;-86
2022/05/07 00:31:11;;;;;;;5.00;4.53;;;;;;;;;;5033098;28;20667;-86
2022/05/07 00:33:39;;;;;;;8.97;5.60;;;;;;;;;;5033093;28;20195;-87
2022/05/07 00:36:10;;;;;;;5.63;4.97;;;;;;;;;;5033090;28;20635;-87
2022/05/07 00:38:38;;;;;;;6.77;5.83;;;;;;;;;;5033312;28;20207;-87
2022/05/07 00:41:09;;;;;;;7.70;5.50;;;;;;;;;;5033093;28;20690;-86
2022/05/07 00:43:37;;;;;;;8.20;5.57;;;;;;;;;;5033517;28;20270;-87
2022/05/07 00:46:06;;;;;;;7.17;5.83;;;;;;;;;;5033048;28;20226;-87
2022/05/07 00:48:33;;;;;;;7.13;5.30;;;;;;;;;;5033164;28;20690;-86
2022/05/07 00:53:50;;;;;;;6.50;5.50;;;;;;;;;;5032991;28;20182;-88
2022/05/07 01:03:04;;;;;;;7.00;6.30;;;;;;;;;;4948702;29;20209;-87
2022/05/07 01:18:40;;;;;;;7.80;5.37;;;;;;;;;;4785882;30;20312;-86
2022/05/07 01:21:39;;;;;;;8.00;7.20;;;;;;;;;;4783683;30;20213;-86
2022/05/07 01:24:25;;;;;;;7.97;6.17;;;;;;;;;;4763739;30;20640;-87
2022/05/07 01:27:10;;;;;;;5.50;5.00;;;;;;;;;;4767632;30;20240;-88
2022/05/07 01:41:58;;;;;;;6.67;5.87;;;;;;;;;;4746737;30;20210;-86
2022/05/07 01:50:37;;;;;;;7.27;5.33;;;;;;;;;;4829133;29;20242;-87
2022/05/07 01:53:56;;;;;;;;;;;;;;;;;;;;;
2022/05/07 02:00:09;;;;;;;6.93;6.30;;;;;;;;;;4932832;29;20190;-87
2022/05/07 02:02:52;;;;;;;8.07;6.43;;;;;;;;;;4945242;28;20660;-85
2022/05/07 02:18:18;;;;;;;5.87;5.37;;;;;;;;;;4760927;30;20599;-87
2022/05/07 02:24:27;;;;;;;;;;;;;;;;;;;;;
2022/05/07 02:30:31;;;;;;;7.27;6.10;;;;;;;;;;4803067;29;20338;-87
2022/05/07 02:33:48;;;;;;;6.70;5.33;;;;;;;;;;4837005;29;20213;-88
2022/05/07 02:53:04;;;;;;;6.13;4.67;;;;;;;;;;4838909;29;20215;-86
2022/05/07 02:56:05;;;;;;;7.80;4.80;;;;;;;;;;4868358;29;20750;-87
2022/05/07 03:03:05;;;;;;;11.53;6.87;;;;;;;;;;4961313;28;20605;-87
2022/05/07 03:08:24;;;;;;;6.10;5.53;;;;;;;;;;4950468;28;20227;-88
2022/05/07 03:14:22;;;;;;;6.40;5.40;;;;;;;;;;4965155;28;20219;-86
2022/05/07 03:17:09;;;;;;;5.80;5.20;;;;;;;;;;5004766;28;20199;-86
2022/05/07 03:23:35;;;;;;;6.67;5.97;;;;;;;;;;4958593;28;20725;-86
2022/05/07 03:28:59;;;;;;;6.90;5.90;;;;;;;;;;4898030;29;20202;-88
2022/05/07 03:31:52;;;;;;;10.03;5.70;;;;;;;;;;4897712;29;20219;-87
2022/05/07 03:37:40;;;;;;;7.83;6.83;;;;;;;;;;4897350;29;20326;-87
2022/05/07 03:44:48;;;;;;;8.43;5.97;;;;;;;;;;4841490;29;20254;-87
2022/05/07 03:51:11;;;;;;;7.07;5.07;;;;;;;;;;4880655;29;20260;-86
2022/05/07 03:53:52;;;;;;;6.77;5.77;;;;;;;;;;4897673;29;20259;-86
2022/05/07 03:56:25;;;;;;;7.20;6.50;;;;;;;;;;4901083;29;20204;-86
2022/05/07 04:09:15;;;;;;;13.67;8.63;;;;;;;;;;4820005;29;20225;-86
2022/05/07 04:41:35;;;;;;;6.13;5.60;;;;;;;;;;4784542;30;20208;-86
2022/05/07 04:51:40;;;;;;;8.17;5.33;;;;;;;;;;4819496;29;20225;-86
2022/05/07 04:57:06;;;;;;;5.70;5.10;;;;;;;;;;4875952;29;20687;-88
2022/05/07 04:59:36;;;;;;;6.30;5.43;;;;;;;;;;4877983;29;20331;-88
2022/05/07 05:02:04;;;;;;;8.83;5.60;;;;;;;;;;4894941;29;20655;-88
2022/05/07 05:04:31;;;;;;;9.37;5.77;;;;;;;;;;4920805;29;20184;-86
2022/05/07 05:07:00;;;;;;;6.60;5.33;;;;;;;;;;4915432;29;20259;-89
2022/05/07 05:09:27;;;;;;;9.00;5.57;;;;;;;;;;4914666;29;20292;-88
2022/05/07 05:11:54;;;;;;;6.87;5.93;;;;;;;;;;4914819;29;20752;-88
2022/05/07 05:17:06;;;;;;;5.97;5.43;;;;;;;;;;4930011;28;20632;-88
2022/05/07 05:19:33;;;;;;;8.23;5.83;;;;;;;;;;4971704;28;20291;-88
2022/05/07 05:22:02;;;;;;;7.73;4.47;;;;;;;;;;4971555;28;20312;-88
2022/05/07 05:24:29;;;;;;;7.40;4.70;;;;;;;;;;4971640;28;20208;-88
2022/05/07 05:26:59;;;;;;;4.43;4.00;;;;;;;;;;4977015;28;20232;-86
2022/05/07 05:29:26;;;;;;;4.83;4.43;;;;;;;;;;4971831;28;20623;-87
2022/05/07 05:31:54;;;;;;;6.77;5.87;;;;;;;;;;4971846;28;20208;-85
2022/05/07 05:34:21;;;;;;;11.23;4.90;;;;;;;;;;4971448;28;20773;-85
2022/05/07 05:36:48;;;;;;;10.60;5.53;;;;;;;;;;4971861;28;20658;-85
2022/05/07 05:39:17;;;;;;;6.37;4.73;;;;;;;;;;4971375;28;20205;-84
2022/05/07 05:41:44;;;;;;;7.00;4.40;;;;;;;;;;4971879;28;20589;-84
2022/05/07 05:44:12;;;;;;;4.70;4.30;;;;;;;;;;4971061;28;20192;-85
2022/05/07 05:46:39;;;;;;;8.07;5.17;;;;;;;;;;4971409;28;20236;-84
2022/05/07 05:49:06;;;;;;;7.10;4.60;;;;;;;;;;4971810;28;20292;-84
2022/05/07 05:51:33;;;;;;;6.47;4.83;;;;;;;;;;4989750;28;20634;-84
2022/05/07 05:54:00;;;;;;;5.03;4.30;;;;;;;;;;4990613;28;20204;-85
2022/05/07 05:56:29;;;;;;;7.13;5.17;;;;;;;;;;4991105;28;20195;-85
2022/05/07 05:58:56;;;;;;;8.97;5.17;;;;;;;;;;4990946;28;20727;-85
2022/05/07 06:01:24;;;;;;;7.10;6.00;;;;;;;;;;4990818;28;20294;-85
2022/05/07 06:03:51;;;;;;;7.27;5.47;;;;;;;;;;4990872;28;20650;-84
2022/05/07 06:06:18;;;;;;;7.53;5.07;;;;;;;;;;4990952;28;20204;-85
2022/05/07 06:08:46;;;;;;;7.57;5.07;;;;;;;;;;4990700;28;20231;-86
2022/05/07 06:11:14;;;;;;;6.27;5.40;;;;;;;;;;4990725;28;20262;-85
2022/05/07 06:13:43;;;;;;;5.57;5.10;;;;;;;;;;4990891;28;20211;-85
2022/05/07 06:16:10;;;;;;;6.27;5.67;;;;;;;;;;4990894;28;20200;-85
2022/05/07 06:18:37;;;;;;;5.70;5.03;;;;;;;;;;4990799;28;20193;-85
2022/05/07 06:21:05;;;;;;;10.80;6.60;;;;;;;;;;4991076;28;20201;-85
2022/05/07 06:23:32;;;;;;;6.70;6.10;;;;;;;;;;4990605;28;20684;-85
2022/05/07 06:28:45;;;;;;;8.33;6.20;;;;;;;;;;4990741;28;20356;-85
2022/05/07 06:31:12;;;;;;;6.37;5.83;;;;;;;;;;4990574;28;20210;-85
2022/05/07 06:33:39;;;;;;;6.50;5.83;;;;;;;;;;4990682;28;20673;-86
2022/05/07 06:36:07;;;;;;;10.87;6.03;;;;;;;;;;5001631;28;20296;-84
2022/05/07 06:38:35;;;;;;;6.97;4.93;;;;;;;;;;4991478;28;20255;-84
2022/05/07 06:41:03;;;;;;;5.47;4.67;;;;;;;;;;4990193;28;20291;-84
2022/05/07 06:43:31;;;;;;;6.27;5.17;;;;;;;;;;4990808;28;20200;-84
2022/05/07 06:46:00;;;;;;;7.33;5.30;;;;;;;;;;4990186;28;20208;-84
2022/05/07 06:48:27;;;;;;;5.33;4.80;;;;;;;;;;4990321;28;20248;-84
2022/05/07 06:50:55;;;;;;;7.10;4.60;;;;;;;;;;4996988;28;20608;-84
2022/05/07 06:53:22;;;;;;;5.43;4.93;;;;;;;;;;5035252;28;20293;-84
2022/05/07 06:55:59;;;;;;;5.17;4.67;;;;;;;;;;5035337;28;20198;-84
2022/05/07 06:58:27;;;;;;;11.47;4.90;;;;;;;;;;5035306;28;20241;-85
2022/05/07 07:00:55;;;;;;;6.93;5.00;;;;;;;;;;5035132;28;20205;-84
2022/05/07 07:03:24;;;;;;;6.77;4.93;;;;;;;;;;5035368;28;20289;-84
2022/05/07 07:05:52;;;;;;;5.23;4.73;;;;;;;;;;5035078;28;20195;-83
2022/05/07 07:08:20;;;;;;;8.37;4.70;;;;;;;;;;5035243;28;20314;-83
2022/05/07 07:10:48;;;;;;;5.00;4.50;;;;;;;;;;5034985;28;20930;-84
2022/05/07 07:13:16;;;;;;;7.47;5.70;;;;;;;;;;5034776;28;20613;-83
2022/05/07 07:15:43;;;;;;;8.20;5.23;;;;;;;;;;5033791;28;20203;-86
2022/05/07 07:18:11;;;;;;;5.63;5.00;;;;;;;;;;5033667;28;20210;-86
2022/05/07 07:20:41;;;;;;;6.17;5.20;;;;;;;;;;5035487;28;20289;-84
2022/05/07 07:23:11;;;;;;;5.93;4.50;;;;;;;;;;5034192;28;20277;-82
2022/05/07 07:25:39;;;;;;;6.63;5.83;;;;;;;;;;5034350;28;20261;-82
2022/05/07 07:28:06;;;;;;;6.10;5.30;;;;;;;;;;5034180;28;20276;-82
2022/05/07 07:30:34;;;;;;;9.80;6.50;;;;;;;;;;5034089;28;20202;-82
2022/05/07 07:33:01;;;;;;;5.33;4.77;;;;;;;;;;5034363;28;20560;-82
2022/05/07 07:35:28;;;;;;;7.27;4.67;;;;;;;;;;5034147;28;20199;-82
2022/05/07 07:37:57;;;;;;;5.50;4.70;;;;;;;;;;5034503;28;20220;-82
2022/05/07 07:40:24;;;;;;;6.37;4.50;;;;;;;;;;5033951;28;20203;-82
2022/05/07 07:42:51;;;;;;;5.87;4.60;;;;;;;;;;5034086;28;20626;-83
2022/05/07 07:48:03;;;;;;;10.30;6.07;;;;;;;;;;5034223;28;20694;-83
2022/05/07 07:50:31;;;;;;;8.43;5.83;;;;;;;;;;5033574;28;20203;-83
2022/05/07 07:53:02;;;;;;;17.20;9.63;;;;;;;;;;5034102;28;20285;-83
2022/05/07 07:55:29;;;;;;;7.13;5.40;;;;;;;;;;5034271;28;20183;-83
2022/05/07 07:57:57;;;;;;;7.57;4.70;;;;;;;;;;5034062;28;20685;-83
2022/05/07 08:00:26;;;;;;;6.13;4.60;;;;;;;;;;5033353;28;20203;-83
2022/05/07 08:02:54;;;;;;;6.33;4.17;;;;;;;;;;5033200;28;20281;-83
2022/05/07 08:05:22;;;;;;;5.10;4.60;;;;;;;;;;5034467;28;20353;-85
2022/05/07 08:13:21;;;;;;;6.57;4.33;;;;;;;;;;5034160;28;20333;-85
2022/05/07 08:15:48;;;;;;;7.37;4.60;;;;;;;;;;5033988;28;20197;-85
2022/05/07 08:18:16;;;;;;;8.43;4.67;;;;;;;;;;5034346;28;20279;-85
2022/05/07 08:20:43;;;;;;;4.80;4.27;;;;;;;;;;5033852;28;20191;-85
2022/05/07 08:23:12;;;;;;;9.07;5.97;;;;;;;;;;5034052;28;20239;-85
2022/05/07 08:25:40;;;;;;;9.03;5.03;;;;;;;;;;5033952;28;20231;-85
2022/05/07 08:28:08;;;;;;;5.60;4.37;;;;;;;;;;5033699;28;20312;-84
2022/05/07 08:30:36;;;;;;;5.80;4.10;;;;;;;;;;5033823;28;20598;-83
2022/05/07 08:33:04;;;;;;;5.03;4.47;;;;;;;;;;5033663;28;20200;-85
2022/05/07 08:35:32;;;;;;;7.17;4.20;;;;;;;;;;5033908;28;20281;-84
2022/05/07 08:37:59;;;;;;;7.17;3.93;;;;;;;;;;5033459;28;20191;-84
2022/05/07 08:40:27;;;;;;;4.07;3.70;;;;;;;;;;5034034;28;20557;-84
2022/05/07 08:42:56;;;;;;;4.73;4.33;;;;;;;;;;5033551;28;20198;-84
2022/05/07 08:45:24;;;;;;;8.20;3.60;;;;;;;;;;5033706;28;20204;-85
2022/05/07 08:47:53;;;;;;;10.23;3.90;;;;;;;;;;5033310;28;20319;-85
2022/05/07 08:50:21;;;;;;;4.97;3.90;;;;;;;;;;5033510;28;20218;-84
2022/05/07 08:52:49;;;;;;;5.73;4.47;;;;;;;;;;5033854;28;20199;-85
2022/05/07 08:55:17;;;;;;;4.20;3.37;;;;;;;;;;5033216;28;20294;-85
2022/05/07 08:57:46;;;;;;;6.23;4.50;;;;;;;;;;5033066;28;20206;-84
2022/05/07 09:00:17;;;;;;;6.53;3.63;;;;;;;;;;5032907;28;20202;-85
2022/05/07 09:02:47;;;;;;;4.87;3.43;;;;;;;;;;5033043;28;20290;-84
2022/05/07 09:05:18;;;;;;;4.27;3.33;;;;;;;;;;5033238;28;20248;-84
2022/05/07 09:07:55;;;;;;;11.93;4.03;;;;;;;;;;5032952;28;20182;-84
2022/05/07 09:10:26;;;;;;;6.70;3.60;;;;;;;;;;5032922;28;20284;-85
2022/05/07 09:12:53;;;;;;;11.80;4.13;;;;;;;;;;5032500;28;20184;-84
2022/05/07 09:15:22;;;;;;;11.70;3.70;;;;;;;;;;5032740;28;20292;-85
2022/05/07 09:17:49;;;;;;;9.13;3.83;;;;;;;;;;5032900;28;20201;-85
2022/05/07 09:20:18;;;;;;;12.77;4.37;;;;;;;;;;5032650;28;20202;-85
2022/05/07 09:22:55;;;;;;;4.47;4.03;;;;;;;;;;5032602;28;20289;-84
2022/05/07 09:25:23;;;;;;;6.63;4.50;;;;;;;;;;5032667;28;20193;-85
2022/05/07 09:27:54;;;;;;;5.20;3.50;;;;;;;;;;5036389;28;20231;-85
2022/05/07 09:30:27;;;;;;;5.27;4.17;;;;;;;;;;5035730;28;20190;-82
2022/05/07 09:32:55;;;;;;;3.87;3.30;;;;;;;;;;5033125;28;20632;-84
2022/05/07 09:38:11;;;;;;;9.40;4.70;;;;;;;;;;5032613;28;20186;-84
2022/05/07 09:40:39;;;;;;;6.37;4.10;;;;;;;;;;5032683;28;20235;-85
2022/05/07 09:43:08;;;;;;;5.87;3.93;;;;;;;;;;5032325;28;20664;-84
2022/05/07 09:45:38;;;;;;;6.33;4.30;;;;;;;;;;5032176;28;20289;-85
2022/05/07 09:48:06;;;;;;;5.40;4.23;;;;;;;;;;5032454;28;20582;-85
2022/05/07 09:50:46;;;;;;;5.90;4.07;;;;;;;;;;5032374;28;20638;-85
2022/05/07 09:58:45;;;;;;;7.67;4.17;;;;;;;;;;5032566;28;20184;-85
2022/05/07 10:01:25;;;;;;;6.43;4.27;;;;;;;;;;5032332;28;20201;-84
2022/05/07 10:04:04;;;;;;;5.37;4.87;;;;;;;;;;5032709;28;20288;-85
2022/05/07 10:06:45;;;;;;;4.33;3.93;;;;;;;;;;5032108;28;20281;-85
2022/05/07 10:09:23;;;;;;;6.23;3.90;;;;;;;;;;5031930;28;20217;-84
2022/05/07 10:11:53;;;;;;;5.43;3.60;;;;;;;;;;5032530;28;20642;-85
2022/05/07 10:14:26;;;;;;;9.50;4.33;;;;;;;;;;5032604;28;20201;-86
2022/05/07 10:17:11;;;;;;;7.83;3.83;;;;;;;;;;5032741;28;20281;-85
2022/05/07 10:19:40;;;;;;;8.90;4.67;;;;;;;;;;5031814;28;20187;-87
2022/05/07 10:22:18;;;;;;;5.80;4.20;;;;;;;;;;5031855;28;20733;-88
2022/05/07 10:24:46;;;;;;;8.77;4.23;;;;;;;;;;5033085;28;20662;-84
2022/05/07 10:27:22;;;;;;;7.10;4.40;;;;;;;;;;5036007;28;20199;-84
2022/05/07 10:29:50;;;;;;;6.67;4.20;;;;;;;;;;5036004;28;20581;-82
2022/05/07 10:32:21;;;;;;;7.10;4.20;;;;;;;;;;5036630;28;20746;-86
2022/05/07 10:34:53;;;;;;;6.27;3.90;;;;;;;;;;5036552;28;20191;-92
2022/05/07 10:37:22;;;;;;;7.80;3.83;;;;;;;;;;5036713;28;20195;-93
2022/05/07 10:39:53;;;;;;;4.53;4.13;;;;;;;;;;5037284;28;20282;-90
2022/05/07 10:42:22;;;;;;;9.20;5.43;;;;;;;;;;5036485;28;20194;-93
2022/05/07 10:44:50;;;;;;;6.10;3.87;;;;;;;;;;5036301;28;20198;-94
2022/05/07 10:47:22;;;;;;;4.63;4.07;;;;;;;;;;5036259;28;20190;-92
2022/05/07 10:49:56;;;;;;;6.77;4.07;;;;;;;;;;5036124;28;20277;-93
2022/05/07 10:52:33;;;;;;;4.53;4.03;;;;;;;;;;5036243;28;20198;-93
2022/05/07 10:55:11;;;;;;;6.33;4.17;;;;;;;;;;5036298;28;20226;-94
2022/05/07 10:57:40;;;;;;;4.47;3.50;;;;;;;;;;5036546;28;20226;-94
2022/05/07 11:00:14;;;;;;;7.43;4.17;;;;;;;;;;5036745;28;20678;-94
2022/05/07 11:02:43;;;;;;;6.00;3.67;;;;;;;;;;5036175;28;20197;-93
2022/05/07 11:05:11;;;;;;;7.63;4.00;;;;;;;;;;5035953;28;20202;-93
2022/05/07 11:07:39;;;;;;;6.70;4.83;;;;;;;;;;5036614;28;20263;-94
2022/05/07 11:10:07;;;;;;;5.07;3.87;;;;;;;;;;5036345;28;20241;-94
2022/05/07 11:12:36;;;;;;;4.97;4.47;;;;;;;;;;5035812;28;20202;-94
2022/05/07 11:15:05;;;;;;;5.10;4.17;;;;;;;;;;5035963;28;20201;-94
2022/05/07 11:17:35;;;;;;;5.73;3.87;;;;;;;;;;5036123;28;20222;-92
2022/05/07 11:20:04;;;;;;;8.30;3.43;;;;;;;;;;5035752;28;20203;-92
2022/05/07 11:22:32;;;;;;;4.90;4.37;;;;;;;;;;5035526;28;20232;-93
2022/05/07 11:25:00;;;;;;;6.80;4.00;;;;;;;;;;5035832;28;20261;-93
2022/05/07 11:27:32;;;;;;;8.63;5.80;;;;;;;;;;5035879;28;20663;-92
2022/05/07 11:30:00;;;;;;;7.53;5.43;;;;;;;;;;5035598;28;20229;-93
2022/05/07 11:32:38;;;;;;;4.57;4.17;;;;;;;;;;5035698;28;20191;-94
2022/05/07 11:35:08;;;;;;;8.07;6.43;;;;;;;;;;5035598;28;20187;-92
2022/05/07 11:37:45;;;;;;;8.13;4.40;;;;;;;;;;5035651;28;20685;-94
2022/05/07 11:40:14;;;;;;;8.73;3.83;;;;;;;;;;5035831;28;20225;-93
2022/05/07 11:42:43;;;;;;;4.73;3.90;;;;;;;;;;5035719;28;20550;-94
2022/05/07 11:45:26;;;;;;;9.77;3.97;;;;;;;;;;5035326;28;20260;-94
2022/05/07 11:47:55;;;;;;;3.77;3.43;;;;;;;;;;5035303;28;20214;-94
2022/05/07 11:50:26;;;;;;;4.77;3.47;;;;;;;;;;5034861;28;20229;-93
2022/05/07 11:52:54;;;;;;;3.77;3.47;;;;;;;;;;5035797;28;20293;-94
2022/05/07 11:55:26;;;;;;;4.97;3.73;;;;;;;;;;5035472;28;20206;-94
2022/05/07 11:57:54;;;;;;;5.73;4.10;;;;;;;;;;5035466;28;20194;-94
2022/05/07 12:00:23;;;;;;;3.70;3.40;;;;;;;;;;5035017;28;20209;-94
2022/05/07 12:02:51;;;;;;;9.23;4.67;;;;;;;;;;5035040;28;20191;-94
2022/05/07 12:05:19;;;;;;;7.30;4.07;;;;;;;;;;5034838;28;20706;-94
2022/05/07 12:07:50;;;;;;;6.07;3.93;;;;;;;;;;5034949;28;20344;-93
2022/05/07 12:10:18;;;;;;;4.00;3.27;;;;;;;;;;5035275;28;20211;-92
2022/05/07 12:12:46;;;;;;;6.00;3.73;;;;;;;;;;5035068;28;20206;-94
2022/05/07 12:15:13;;;;;;;4.00;3.57;;;;;;;;;;5034580;28;20198;-93
2022/05/07 12:17:52;;;;;;;9.60;4.00;;;;;;;;;;5035068;28;20277;-93
2022/05/07 12:20:20;;;;;;;4.63;3.60;;;;;;;;;;5034661;28;20284;-92
2022/05/07 12:31:04;;;;;;;3.90;3.40;;;;;;;;;;5035076;28;20237;-94
2022/05/07 12:33:31;;;;;;;4.53;4.13;;;;;;;;;;5034259;28;20195;-94
2022/05/07 12:35:58;;;;;;;3.40;3.10;;;;;;;;;;5033229;28;20668;-94
2022/05/07 12:38:27;;;;;;;6.07;3.27;;;;;;;;;;5034500;28;20575;-95
2022/05/07 12:40:54;;;;;;;6.40;3.30;;;;;;;;;;5034296;28;20195;-95
2022/05/07 12:43:22;;;;;;;4.30;3.03;;;;;;;;;;5034184;28;20198;-95
2022/05/07 12:45:50;;;;;;;4.50;3.43;;;;;;;;;;5034161;28;20195;-92
2022/05/07 12:48:18;;;;;;;6.00;3.33;;;;;;;;;;5033399;28;20638;-93
2022/05/07 12:50:46;;;;;;;4.40;3.17;;;;;;;;;;5033601;28;20590;-92
2022/05/07 12:53:15;;;;;;;4.83;3.70;;;;;;;;;;5033928;28;20365;-94
2022/05/07 12:55:44;;;;;;;4.00;3.30;;;;;;;;;;5033807;28;20213;-93
2022/05/07 12:58:12;;;;;;;4.40;2.80;;;;;;;;;;5033813;28;20198;-94
2022/05/07 13:00:40;;;;;;;4.23;2.60;;;;;;;;;;5033692;28;20198;-96
2022/05/07 13:03:08;;;;;;;5.60;2.27;;;;;;;;;;5034143;28;20199;-95
2022/05/07 13:05:35;;;;;;;7.93;2.73;;;;;;;;;;5034004;28;20203;-93
2022/05/07 13:08:03;;;;;;;3.40;2.83;;;;;;;;;;5034076;28;20199;-95
2022/05/07 13:10:31;;;;;;;2.53;2.30;;;;;;;;;;5033484;28;20226;-95
2022/05/07 13:13:00;;;;;;;3.73;2.43;;;;;;;;;;5034182;28;20205;-95
2022/05/07 13:15:28;;;;;;;11.77;7.40;;;;;;;;;;5033570;28;20202;-94
2022/05/07 13:17:57;;;;;;;5.80;3.87;;;;;;;;;;5033455;28;20194;-94
2022/05/07 13:20:24;;;;;;;6.17;2.60;;;;;;;;;;5033481;28;20206;-95
2022/05/07 13:22:51;;;;;;;4.37;2.77;;;;;;;;;;5033218;28;20230;-95
2022/05/07 13:25:19;;;;;;;2.30;2.10;;;;;;;;;;5033564;28;20198;-96
2022/05/07 13:27:47;;;;;;;3.87;2.20;;;;;;;;;;5033583;28;20206;-96
2022/05/07 13:30:17;;;;;;;2.40;2.17;;;;;;;;;;5033094;28;20316;-95
2022/05/07 13:32:46;;;;;;;5.33;2.47;;;;;;;;;;5033566;28;20289;-95
2022/05/07 13:35:16;;;;;;;3.67;1.83;;;;;;;;;;5033513;28;20199;-96
2022/05/07 13:37:44;;;;;;;3.27;2.40;;;;;;;;;;5033444;28;20220;-96
2022/05/07 13:40:12;;;;;;;3.60;2.37;;;;;;;;;;5033159;28;20376;-95
2022/05/07 13:42:40;;;;;;;4.53;2.27;;;;;;;;;;5033792;28;20218;-95
2022/05/07 13:45:08;;;;;;;3.60;2.37;;;;;;;;;;5033187;28;20628;-94
2022/05/07 13:47:38;;;;;;;5.70;2.20;;;;;;;;;;5033533;28;20202;-95
2022/05/07 13:50:06;;;;;;;2.50;2.00;;;;;;;;;;5033755;28;20631;-94
2022/05/07 13:52:36;;;;;;;6.07;2.47;;;;;;;;;;5033182;28;20281;-94
2022/05/07 13:55:03;;;;;;;4.00;2.40;;;;;;;;;;5032979;28;20256;-96
2022/05/07 13:57:31;;;;;;;4.10;2.60;;;;;;;;;;5033128;28;20198;-95
2022/05/07 13:59:59;;;;;;;3.20;2.10;;;;;;;;;;5033668;28;20633;-96
2022/05/07 14:02:26;;;;;;;3.30;1.90;;;;;;;;;;5033423;28;20285;-95
2022/05/07 14:04:55;;;;;;;2.50;2.30;;;;;;;;;;5033137;28;20205;-95
2022/05/07 14:07:22;;;;;;;4.43;2.80;;;;;;;;;;5033015;28;20220;-96
2022/05/07 14:09:49;;;;;;;3.23;2.63;;;;;;;;;;5033358;28;20232;-92
2022/05/07 14:12:17;;;;;;;2.90;2.60;;;;;;;;;;5034068;28;20736;-96
2022/05/07 14:14:45;;;;;;;2.77;2.20;;;;;;;;;;5032753;28;20206;-96
2022/05/07 14:17:13;;;;;;;6.00;3.07;;;;;;;;;;5033566;28;20285;-94
2022/05/07 14:19:40;;;;;;;3.37;2.43;;;;;;;;;;5032990;28;20202;-95
2022/05/07 14:22:10;;;;;;;2.60;2.43;;;;;;;;;;5033421;28;20286;-96
2022/05/07 14:24:39;;;;;;;5.40;2.40;;;;;;;;;;5033232;28;20201;-94
2022/05/07 14:27:07;;;;;;;5.10;3.20;;;;;;;;;;5032712;28;20198;-94
2022/05/07 14:29:34;;;;;;;8.60;2.77;;;;;;;;;;5033494;28;20670;-96
2022/05/07 14:32:04;;;;;;;6.00;2.67;;;;;;;;;;5034714;28;20288;-94
2022/05/07 14:34:31;;;;;;;5.50;2.80;;;;;;;;;;5033131;28;20204;-91
2022/05/07 14:36:59;;;;;;;4.30;3.90;;;;;;;;;;5032789;28;20195;-95
2022/05/07 14:39:28;;;;;;;2.53;2.33;;;;;;;;;;5033022;28;20205;-95
2022/05/07 14:41:56;;;;;;;5.60;2.70;;;;;;;;;;5032588;28;20196;-96
2022/05/07 14:44:23;;;;;;;2.60;2.40;;;;;;;;;;5038373;28;20257;-96
2022/05/07 14:46:51;;;;;;;3.27;2.67;;;;;;;;;;5032689;28;20227;-96
2022/05/07 14:49:18;;;;;;;2.87;2.60;;;;;;;;;;5032516;28;20225;-96
2022/05/07 14:51:46;;;;;;;2.20;1.97;;;;;;;;;;5032583;28;20208;-96
2022/05/07 14:54:14;;;;;;;7.20;1.93;;;;;;;;;;5032528;28;20205;-96
2022/05/07 14:56:42;;;;;;;6.70;2.27;;;;;;;;;;5032489;28;20218;-95
2022/05/07 14:59:10;;;;;;;4.57;1.97;;;;;;;;;;5032897;28;20286;-96
2022/05/07 15:01:37;;;;;;;3.13;1.70;;;;;;;;;;5032927;28;20639;-96
2022/05/07 15:04:05;;;;;;;2.50;1.87;;;;;;;;;;5032275;28;20293;-96
2022/05/07 15:06:33;;;;;;;2.63;1.90;;;;;;;;;;5032600;28;20683;-96
2022/05/07 15:11:47;;;;;;;9.83;3.80;;;;;;;;;;5034939;28;20710;-94
2022/05/07 15:14:14;;;;;;;10.73;3.90;;;;;;;;;;5036500;28;20218;-96
2022/05/07 15:16:42;;;;;;;5.43;2.63;;;;;;;;;;5035760;28;20225;-95
2022/05/07 15:19:10;;;;;;;4.00;2.50;;;;;;;;;;5035891;28;20590;-96
2022/05/07 15:21:37;;;;;;;2.93;1.70;;;;;;;;;;5035637;28;20640;-96
2022/05/07 15:24:05;;;;;;;2.97;2.23;;;;;;;;;;5035918;28;20249;-96
2022/05/07 15:26:32;;;;;;;5.93;2.20;;;;;;;;;;5035718;28;20191;-95
2022/05/07 15:29:01;;;;;;;3.53;2.67;;;;;;;;;;5035538;28;20199;-96
2022/05/07 15:31:28;;;;;;;2.93;2.20;;;;;;;;;;5034038;28;20310;-94
2022/05/07 15:36:51;;;;;;;5.23;2.50;;;;;;;;;;5002052;28;20195;-93
2022/05/07 15:39:19;;;;;;;9.00;3.37;;;;;;;;;;5035427;28;20202;-96
2022/05/07 15:41:46;;;;;;;2.77;2.40;;;;;;;;;;5035369;28;20689;-95
2022/05/07 15:44:15;;;;;;;3.63;2.87;;;;;;;;;;5035629;28;20199;-96
2022/05/07 15:46:46;;;;;;;8.03;6.53;;;;;;;;;;5036443;28;20226;-95
2022/05/07 15:49:13;;;;;;;11.47;5.63;;;;;;;;;;5035348;28;20202;-91
2022/05/07 15:51:43;;;;;;;5.23;3.87;;;;;;;;;;5034886;28;20222;-92
2022/05/07 15:54:10;;;;;;;9.67;6.10;;;;;;;;;;5035102;28;20586;-95
2022/05/07 15:56:38;;;;;;;6.70;3.43;;;;;;;;;;5035000;28;20755;-94
2022/05/07 15:59:05;;;;;;;6.40;3.13;;;;;;;;;;5035141;28;20217;-95
2022/05/07 16:01:35;;;;;;;4.80;2.60;;;;;;;;;;5035035;28;20701;-95
2022/05/07 16:04:02;;;;;;;5.13;3.17;;;;;;;;;;5035383;28;20794;-95
2022/05/07 16:06:30;;;;;;;8.57;4.87;;;;;;;;;;5034856;28;20195;-95
2022/05/07 16:08:57;;;;;;;6.80;3.30;;;;;;;;;;5034858;28;20210;-94
2022/05/07 16:11:25;;;;;;;10.40;6.97;;;;;;;;;;5034949;28;20225;-95
2022/05/07 16:13:52;;;;;;;4.90;3.37;;;;;;;;;;5034881;28;20205;-94
2022/05/07 16:16:20;;;;;;;3.47;2.67;;;;;;;;;;5034768;28;20698;-94
2022/05/07 16:18:49;;;;;;;5.33;2.77;;;;;;;;;;5034674;28;20264;-94
2022/05/07 16:21:17;;;;;;;6.97;3.00;;;;;;;;;;5034355;28;20562;-94
2022/05/07 16:26:29;;;;;;;5.47;2.33;;;;;;;;;;5034588;28;20662;-95
2022/05/07 16:28:56;;;;;;;4.20;2.87;;;;;;;;;;5034620;28;20711;-94
2022/05/07 16:31:25;;;;;;;4.37;3.33;;;;;;;;;;5034699;28;20226;-94
2022/05/07 16:33:55;;;;;;;3.93;3.17;;;;;;;;;;5034428;28;20198;-95
2022/05/07 16:36:25;;;;;;;4.27;2.40;;;;;;;;;;5034355;28;20203;-94
2022/05/07 16:38:52;;;;;;;5.90;3.30;;;;;;;;;;5034350;28;20208;-94
2022/05/07 16:41:19;;;;;;;5.23;3.63;;;;;;;;;;5034335;28;20205;-93
2022/05/07 16:43:46;;;;;;;7.30;3.87;;;;;;;;;;5034357;28;20205;-95
2022/05/07 16:46:15;;;;;;;7.90;4.67;;;;;;;;;;5034310;28;20199;-94
2022/05/07 16:48:43;;;;;;;8.77;4.30;;;;;;;;;;5034106;28;20206;-94
2022/05/07 16:51:12;;;;;;;6.37;4.50;;;;;;;;;;5033929;28;20683;-94
2022/05/07 16:53:39;;;;;;;6.53;5.53;;;;;;;;;;5034100;28;20277;-95
2022/05/07 16:56:07;;;;;;;8.10;5.10;;;;;;;;;;5034163;28;20205;-94
2022/05/07 16:58:35;;;;;;;5.53;3.53;;;;;;;;;;5034131;28;20233;-94
2022/05/07 17:01:02;;;;;;;13.57;4.37;;;;;;;;;;5033945;28;20202;-94
2022/05/07 17:03:30;;;;;;;4.23;3.37;;;;;;;;;;5033797;28;20225;-93
2022/05/07 17:05:57;;;;;;;7.23;2.63;;;;;;;;;;5033844;28;20195;-94
2022/05/07 17:08:26;;;;;;;6.77;3.93;;;;;;;;;;5033924;28;20285;-94
2022/05/07 17:10:53;;;;;;;10.03;3.80;;;;;;;;;;5033843;28;20223;-94
2022/05/07 17:13:20;;;;;;;10.67;7.77;;;;;;;;;;5033776;28;20197;-95
2022/05/07 17:15:49;;;;;;;7.17;5.90;;;;;;;;;;5033800;28;20194;-95
2022/05/07 17:18:16;;;;;;;6.10;4.20;;;;;;;;;;5033727;28;20202;-94
2022/05/07 17:20:45;;;;;;;7.13;4.53;;;;;;;;;;5033504;28;20232;-94
2022/05/07 17:23:13;;;;;;;7.60;4.47;;;;;;;;;;5033502;28;20596;-94
2022/05/07 17:25:42;;;;;;;5.97;3.00;;;;;;;;;;5033374;28;20206;-95
2022/05/07 17:28:09;;;;;;;5.40;3.23;;;;;;;;;;5033479;28;20226;-94
2022/05/07 17:30:37;;;;;;;6.00;2.10;;;;;;;;;;5033255;28;20231;-93
2022/05/07 17:33:05;;;;;;;3.03;2.77;;;;;;;;;;5033337;28;20212;-93
2022/05/07 17:35:32;;;;;;;3.37;2.40;;;;;;;;;;5032508;28;20594;-93
2022/05/07 17:38:02;;;;;;;3.90;2.57;;;;;;;;;;5033562;28;20566;-94
2022/05/07 17:40:30;;;;;;;8.47;3.40;;;;;;;;;;5033154;28;20200;-93
2022/05/07 17:42:59;;;;;;;2.53;2.33;;;;;;;;;;5033144;28;20200;-95
2022/05/07 17:45:27;;;;;;;6.60;3.07;;;;;;;;;;5034857;28;20203;-96
2022/05/07 17:50:35;;;;;;;8.37;4.80;;;;;;;;;;5032784;28;20246;-95
2022/05/07 17:53:04;;;;;;;5.07;3.33;;;;;;;;;;5034349;28;20194;-96
2022/05/07 17:55:32;;;;;;;8.30;5.70;;;;;;;;;;5035688;28;20259;-96
2022/05/07 17:58:01;;;;;;;10.13;3.27;;;;;;;;;;5036013;28;20671;-96
2022/05/07 18:00:29;;;;;;;3.63;3.27;;;;;;;;;;5033770;28;20220;-96
2022/05/07 18:02:57;;;;;;;10.17;7.30;;;;;;;;;;5033523;28;20202;-95
2022/05/07 18:05:24;;;;;;;7.67;5.73;;;;;;;;;;5033406;28;20203;-89
2022/05/07 18:07:51;;;;;;;9.40;4.67;;;;;;;;;;5032823;28;20272;-88
2022/05/07 18:10:19;;;;;;;5.57;3.87;;;;;;;;;;5033128;28;20202;-88
2022/05/07 18:12:46;;;;;;;7.30;4.10;;;;;;;;;;5032817;28;20274;-88
2022/05/07 18:15:15;;;;;;;7.37;3.53;;;;;;;;;;5032716;28;20198;-88
2022/05/07 18:17:44;;;;;;;6.90;3.30;;;;;;;;;;5032651;28;20203;-89
2022/05/07 18:20:13;;;;;;;5.00;2.67;;;;;;;;;;5033319;28;20241;-89
2022/05/07 18:22:40;;;;;;;4.83;2.73;;;;;;;;;;5032632;28;20285;-88